createdAt,value
2023-02-15T00:02:42.691Z,102250.44
2023-02-15T00:07:44.575Z,102247.78
2023-02-15T00:12:46.355Z,102235.41
2023-02-15T00:17:48.208Z,102234.56
2023-02-15T00:22:50.004Z,102229.25
2023-02-15T00:27:51.817Z,102241.59
2023-02-15T00:32:53.632Z,102226.56
2023-02-15T00:37:55.815Z,102219.56
2023-02-15T00:42:59.851Z,102230.19
2023-02-15T00:48:01.800Z,102226.69
2023-02-15T00:53:03.817Z,102216.00
2023-02-15T00:58:06.098Z,102216.94
2023-02-15T01:03:08.362Z,102219.50
2023-02-15T01:08:10.285Z,102219.56
2023-02-15T01:13:12.133Z,102211.66
2023-02-15T01:18:14.173Z,102202.75
2023-02-15T01:23:16.658Z,102210.75
2023-02-15T01:28:18.697Z,102210.75
2023-02-15T01:33:20.482Z,102193.97
2023-02-15T01:38:22.487Z,102194.81
2023-02-15T01:43:41.563Z,102197.56
2023-02-15T01:48:49.097Z,102188.63
2023-02-15T01:54:01.660Z,102185.16
2023-02-15T01:59:09.535Z,102179.84
2023-02-15T02:04:29.374Z,102166.69
2023-02-15T02:09:31.468Z,102157.78
2023-02-15T02:14:33.588Z,102159.59
2023-02-15T02:19:47.453Z,102156.06
2023-02-15T02:25:27.259Z,102143.66
2023-02-15T02:30:29.418Z,102134.78
2023-02-15T02:35:38.152Z,102126.84
2023-02-15T02:41:17.358Z,102121.56
2023-02-15T02:46:31.481Z,102115.41
2023-02-15T02:51:33.590Z,102116.34
2023-02-15T02:56:40.665Z,102121.63
2023-02-15T03:01:53.195Z,102111.06
2023-02-15T03:07:04.734Z,102103.97
2023-02-15T03:12:06.923Z,102104.78
2023-02-15T03:17:10.267Z,102100.47
2023-02-15T03:22:44.268Z,102102.22
2023-02-15T03:27:51.148Z,102095.16
2023-02-15T03:32:54.412Z,102094.22
2023-02-15T03:38:01.859Z,102092.47
2023-02-15T03:43:12.265Z,102084.56
2023-02-15T03:48:14.480Z,102081.00
2023-02-15T03:53:22.051Z,102077.53
2023-02-15T03:58:42.798Z,102075.72
2023-02-15T04:03:50.460Z,102077.44
2023-02-15T04:09:10.971Z,102073.91
2023-02-15T04:14:31.488Z,102072.25
2023-02-15T04:19:52.127Z,102067.72
2023-02-15T04:25:15.182Z,102069.59
2023-02-15T04:30:19.970Z,102059.84
2023-02-15T04:35:21.823Z,102065.13
2023-02-15T04:40:23.862Z,102069.56
2023-02-15T04:45:25.837Z,102065.19
2023-02-15T04:50:27.810Z,102062.50
2023-02-15T04:55:29.719Z,102051.06
2023-02-15T05:00:31.518Z,102046.63
2023-02-15T05:05:33.585Z,102045.75
2023-02-15T05:10:35.561Z,102036.94
2023-02-15T05:15:37.426Z,102034.22
2023-02-15T05:20:39.612Z,102044.03
2023-02-15T05:26:00.520Z,102041.31
2023-02-15T05:31:12.549Z,102043.97
2023-02-15T05:36:14.910Z,102050.22
2023-02-15T05:41:17.078Z,102040.56
2023-02-15T05:46:19.093Z,102039.59
2023-02-15T05:51:20.981Z,102035.19
2023-02-15T05:56:23.064Z,102037.88
2023-02-15T06:01:24.961Z,102039.63
2023-02-15T06:06:27.024Z,102048.53
2023-02-15T06:11:28.834Z,102041.41
2023-02-15T06:16:30.868Z,102044.94
2023-02-15T06:21:32.930Z,102044.09
2023-02-15T06:26:34.867Z,102047.59
2023-02-15T06:31:36.957Z,102034.34
2023-02-15T06:36:38.980Z,102048.53
2023-02-15T06:41:40.770Z,102044.84
2023-02-15T06:46:42.825Z,102042.38
2023-02-15T06:51:44.847Z,102039.63
2023-02-15T06:56:47.169Z,102049.47
2023-02-15T07:01:50.573Z,102042.41
2023-02-15T07:06:54.025Z,102038.78
2023-02-15T07:12:14.798Z,102035.28
2023-02-15T07:17:34.974Z,102031.81
2023-02-15T07:22:38.685Z,102020.31
2023-02-15T07:27:41.350Z,102027.41
2023-02-15T07:33:05.112Z,102029.25
2023-02-15T07:38:07.452Z,102015.88
2023-02-15T07:43:09.835Z,102023.03
2023-02-15T07:48:11.737Z,102012.38
2023-02-15T07:53:13.658Z,102010.53
2023-02-15T07:58:15.567Z,102005.97
2023-02-15T08:03:17.491Z,101999.84
2023-02-15T08:08:31.219Z,102004.22
2023-02-15T08:13:33.185Z,102001.66
2023-02-15T08:18:35.994Z,101999.84
2023-02-15T08:23:37.795Z,102002.53
2023-02-15T08:28:40.195Z,101999.97
2023-02-15T08:33:43.621Z,101995.50
2023-02-15T08:38:45.603Z,101999.19
2023-02-15T08:43:50.588Z,101997.34
2023-02-15T08:48:53.022Z,101985.03
2023-02-15T08:53:59.134Z,101985.75
2023-02-15T08:59:01.627Z,101990.22
2023-02-15T09:04:06.882Z,101979.03
2023-02-15T09:09:09.221Z,101973.38
2023-02-15T09:14:17.331Z,101974.13
2023-02-15T09:19:20.850Z,101968.63
2023-02-15T09:24:22.986Z,101962.28
2023-02-15T09:29:25.524Z,101974.47
2023-02-15T09:34:27.417Z,101976.03
2023-02-15T09:39:29.357Z,101980.56
2023-02-15T09:44:59.534Z,101975.41
2023-02-15T09:50:22.871Z,101978.63
2023-02-15T09:55:30.597Z,101989.84
2023-02-15T10:00:56.879Z,101992.34
2023-02-15T10:06:43.022Z,101983.09
2023-02-15T10:12:03.100Z,101989.03
2023-02-15T10:17:27.807Z,101987.09
2023-02-15T10:23:03.287Z,101988.06
2023-02-15T10:28:16.235Z,101982.66
2023-02-15T10:33:18.006Z,101990.47
2023-02-15T10:38:38.350Z,101985.28
2023-02-15T10:44:15.067Z,101986.13
2023-02-15T10:49:34.237Z,101982.63
2023-02-15T10:54:45.453Z,101982.63
2023-02-15T11:00:03.530Z,101983.47
2023-02-15T11:05:37.880Z,101972.13
2023-02-15T11:11:03.349Z,101954.41
2023-02-15T11:16:20.186Z,101962.41
2023-02-15T11:21:27.292Z,101944.59
2023-02-15T11:26:45.958Z,101948.97
2023-02-15T11:31:54.678Z,101939.22
2023-02-15T11:37:02.777Z,101934.81
2023-02-15T11:42:21.670Z,101933.63
2023-02-15T11:47:24.041Z,101931.16
2023-02-15T11:52:25.800Z,101918.03
2023-02-15T11:57:36.711Z,101914.44
2023-02-15T12:02:42.115Z,101905.59
2023-02-15T12:08:02.066Z,101903.16
2023-02-15T12:13:12.370Z,101897.63
2023-02-15T12:18:20.466Z,101887.94
2023-02-15T12:23:23.249Z,101889.84
2023-02-15T12:28:34.908Z,101880.09
2023-02-15T12:33:44.572Z,101869.38
2023-02-15T12:39:15.044Z,101866.72
2023-02-15T12:44:24.755Z,101868.56
2023-02-15T12:49:28.914Z,101865.06
2023-02-15T12:54:42.622Z,101865.97
2023-02-15T12:59:55.912Z,101856.22
2023-02-15T13:05:04.936Z,101852.72
2023-02-15T13:10:22.788Z,101845.63
2023-02-15T13:15:41.827Z,101842.03
2023-02-15T13:20:46.359Z,101840.22
2023-02-15T13:25:51.646Z,101835.81
2023-02-15T13:30:54.485Z,101819.91
2023-02-15T13:36:15.915Z,101832.22
2023-02-15T13:41:25.874Z,101823.25
2023-02-15T13:46:49.842Z,101818.88
2023-02-15T13:52:14.172Z,101811.84
2023-02-15T13:57:34.592Z,101801.25
2023-02-15T14:02:47.440Z,101806.50
2023-02-15T14:08:19.849Z,101804.78
2023-02-15T14:13:27.916Z,101813.38
2023-02-15T14:18:37.120Z,101817.06
2023-02-15T14:23:54.845Z,101814.38
2023-02-15T14:29:06.844Z,101800.19
2023-02-15T14:34:22.188Z,101796.59
2023-02-15T14:40:27.870Z,101790.59
2023-02-15T14:45:44.211Z,101784.47
2023-02-15T14:50:48.095Z,101789.13
2023-02-15T14:56:06.336Z,101786.50
2023-02-15T15:01:12.352Z,101786.38
2023-02-15T15:06:30.619Z,101786.38
2023-02-15T15:11:44.120Z,101783.69
2023-02-15T15:16:51.932Z,101795.44
2023-02-15T15:21:55.047Z,101799.63
2023-02-15T15:27:34.459Z,101796.41
2023-02-15T15:32:36.824Z,101801.88
2023-02-15T15:38:03.545Z,101803.03
2023-02-15T15:43:37.885Z,101809.22
2023-02-15T15:48:42.130Z,101804.84
2023-02-15T15:53:49.724Z,101798.91
2023-02-15T15:59:18.481Z,101803.88
2023-02-15T16:04:31.083Z,101807.03
2023-02-15T16:09:33.368Z,101808.63
2023-02-15T16:14:40.641Z,101805.50
2023-02-15T16:19:44.076Z,101805.59
2023-02-15T16:25:24.391Z,101804.44
2023-02-15T16:30:34.709Z,101805.16
2023-02-15T16:35:39.274Z,101804.06
2023-02-15T16:40:53.621Z,101802.72
2023-02-15T16:46:05.051Z,101807.94
2023-02-15T16:51:07.195Z,101811.91
2023-02-15T16:56:10.260Z,101815.53
2023-02-15T17:01:16.858Z,101810.25
2023-02-15T17:06:27.928Z,101819.03
2023-02-15T17:11:56.582Z,101815.09
2023-02-15T17:17:07.519Z,101815.38
2023-02-15T17:22:20.913Z,101832.44
2023-02-15T17:27:26.299Z,101828.16
2023-02-15T17:32:31.423Z,101832.63
2023-02-15T17:37:39.386Z,101838.91
2023-02-15T17:42:41.347Z,101842.66
2023-02-15T17:47:43.789Z,101847.09
2023-02-15T17:52:45.794Z,101842.66
2023-02-15T17:57:47.554Z,101846.00
2023-02-15T18:03:07.993Z,101841.84
2023-02-15T18:08:45.667Z,101850.94
2023-02-15T18:13:47.648Z,101844.81
2023-02-15T18:18:50.118Z,101845.53
2023-02-15T18:23:51.996Z,101837.25
2023-02-15T18:28:54.094Z,101840.59
2023-02-15T18:33:59.987Z,101842.13
2023-02-15T18:39:08.501Z,101840.31
2023-02-15T18:44:12.599Z,101834.91
2023-02-15T18:49:14.421Z,101835.06
2023-02-15T18:54:22.614Z,101828.91
2023-02-15T18:59:26.600Z,101831.78
2023-02-15T19:04:28.699Z,101839.31
2023-02-15T19:09:31.323Z,101853.28
2023-02-15T19:14:33.745Z,101847.63
2023-02-15T19:19:35.749Z,101857.06
2023-02-15T19:24:40.806Z,101843.81
2023-02-15T19:29:42.630Z,101851.59
2023-02-15T19:34:44.518Z,101847.13
2023-02-15T19:39:46.691Z,101855.63
2023-02-15T19:44:48.959Z,101845.59
2023-02-15T19:49:51.099Z,101850.50
2023-02-15T19:54:55.253Z,101857.94
2023-02-15T19:59:57.168Z,101854.66
2023-02-15T20:05:00.459Z,101863.91
2023-02-15T20:10:02.751Z,101850.38
2023-02-15T20:15:18.458Z,101871.84
2023-02-15T20:20:21.957Z,101887.22
2023-02-15T20:25:28.811Z,101889.03
2023-02-15T20:30:32.691Z,101875.53
2023-02-15T20:35:34.774Z,101885.47
2023-02-15T20:40:37.952Z,101878.13
2023-02-15T20:45:39.842Z,101885.41
2023-02-15T20:50:42.016Z,101873.66
2023-02-15T20:55:43.868Z,101872.69
2023-02-15T21:00:45.728Z,101876.91
2023-02-15T21:05:50.090Z,101876.03
2023-02-15T21:10:53.215Z,101875.22
2023-02-15T21:15:55.912Z,101873.78
2023-02-15T21:21:04.496Z,101885.44
2023-02-15T21:26:13.946Z,101873.53
2023-02-15T21:31:19.415Z,101875.63
2023-02-15T21:36:24.668Z,101871.78
2023-02-15T21:41:46.764Z,101871.16
2023-02-15T21:47:07.637Z,101878.38
2023-02-15T21:52:12.952Z,101876.88
2023-02-15T21:57:17.220Z,101870.56
2023-02-15T22:02:26.767Z,101865.69
2023-02-15T22:07:28.682Z,101870.31
2023-02-15T22:12:30.485Z,101872.00
2023-02-15T22:17:34.623Z,101870.25
2023-02-15T22:22:36.292Z,101864.59
2023-02-15T22:27:40.627Z,101867.91
2023-02-15T22:32:42.471Z,101869.00
2023-02-15T22:37:44.355Z,101868.47
2023-02-15T22:42:49.278Z,101873.69
2023-02-15T22:47:57.581Z,101867.03
2023-02-15T22:53:01.448Z,101872.69
2023-02-15T22:58:04.254Z,101858.13
2023-02-15T23:03:17.158Z,101868.84
2023-02-15T23:08:19.264Z,101858.06
2023-02-15T23:13:26.308Z,101861.44
2023-02-15T23:18:40.248Z,101862.34
2023-02-15T23:23:45.073Z,101850.84
2023-02-15T23:28:47.580Z,101860.88
2023-02-15T23:33:50.193Z,101859.91
2023-02-15T23:38:52.968Z,101844.06
2023-02-15T23:44:02.408Z,101849.66
2023-02-15T23:49:15.221Z,101856.69
2023-02-15T23:54:18.842Z,101863.78
2023-02-15T23:59:32.099Z,101863.06
